Time;durP1;ratioP1;P1;durP2;ratioP2;P2;SDS_P1;SDS_P2;PMS_P1;PMS_P2;Temp;Humidity;BMP_temperature;BMP_pressure;BME280_temperature;BME280_humidity;BME280_pressure;Samples;Min_cycle;Max_cycle;Signal;HPM_P1;HPM_P2
2023/04/27 00:01:47;;;;;;;;;;;;;;;5.32;64.97;99107.31;5016545;28;20385;-77
2023/04/27 00:04:13;;;;;;;;;;;;;;;5.43;65.26;99102.38;5019871;28;19925;-77
2023/04/27 00:06:38;;;;;;;;;;;;;;;5.41;65.65;99099.13;5022217;28;19933;-77
2023/04/27 00:09:07;;;;;;;;;;;;;;;5.46;65.55;99099.34;5026088;28;19921;-77
2023/04/27 00:11:32;;;;;;;;;;;;;;;5.45;65.71;99095.88;5024005;28;19956;-77
2023/04/27 00:13:57;;;;;;;;;;;;;;;5.48;65.43;99107.88;5029392;28;21487;-77
2023/04/27 00:16:23;;;;;;;;;;;;;;;5.49;66.37;99097.06;5009800;28;20370;-77
2023/04/27 00:18:48;;;;;;;;;;;;;;;5.47;66.14;99093.81;5027046;28;19922;-77
2023/04/27 00:21:13;;;;;;;;;;;;;;;5.46;66.04;99101.97;5022807;28;20004;-77
2023/04/27 00:23:39;;;;;;;;;;;;;;;5.41;66.48;99094.66;5024674;28;19922;-77
2023/04/27 00:26:04;;;;;;;;;;;;;;;5.41;66.88;99101.78;5027258;28;19987;-77
2023/04/27 00:28:29;;;;;;;;;;;;;;;5.57;65.99;99096.81;5023032;28;19921;-77
2023/04/27 00:30:55;;;;;;;;;;;;;;;5.52;66.19;99104.59;5025472;28;19933;-77
2023/04/27 00:33:20;;;;;;;;;;;;;;;5.58;66.78;99095.81;5021471;28;19952;-77
2023/04/27 00:35:45;;;;;;;;;;;;;;;5.57;66.64;99094.19;5020484;28;20008;-77
2023/04/27 00:38:11;;;;;;;;;;;;;;;5.61;66.54;99097.22;5022582;28;20443;-77
2023/04/27 00:40:36;;;;;;;;;;;;;;;5.59;66.39;99086.84;5014841;28;20503;-77
2023/04/27 00:43:01;;;;;;;;;;;;;;;5.57;66.55;99088.88;5023482;28;20009;-76
2023/04/27 00:45:27;;;;;;;;;;;;;;;5.53;66.41;99092.97;5020448;28;20340;-77
2023/04/27 00:47:52;;;;;;;;;;;;;;;5.58;66.83;99092.34;5020874;28;19921;-77
2023/04/27 00:50:23;;;;;;;;;;;;;;;5.51;66.31;99095.03;5024649;28;19921;-77
2023/04/27 00:52:48;;;;;;;;;;;;;;;5.51;66.82;99097.66;5021496;28;20377;-77
2023/04/27 00:55:14;;;;;;;;;;;;;;;5.50;66.92;99101.34;5026776;28;19932;-77
2023/04/27 00:57:39;;;;;;;;;;;;;;;5.51;67.22;99100.31;5015530;28;20007;-77
2023/04/27 01:00:06;;;;;;;;;;;;;;;5.44;67.48;99098.72;5028419;28;19925;-77
2023/04/27 01:02:31;;;;;;;;;;;;;;;5.37;67.58;99090.81;5023521;28;19971;-77
2023/04/27 01:04:59;;;;;;;;;;;;;;;5.50;67.68;99093.41;5023323;28;20100;-78
2023/04/27 01:07:25;;;;;;;;;;;;;;;5.60;67.42;99099.06;5003578;28;20405;-77
2023/04/27 01:09:56;;;;;;;;;;;;;;;5.66;67.61;99100.03;5019070;28;19965;-77
2023/04/27 01:12:24;;;;;;;;;;;;;;;5.60;67.40;99098.25;5004878;28;19928;-77
2023/04/27 01:14:50;;;;;;;;;;;;;;;5.50;67.59;99100.53;5022595;28;19961;-77
2023/04/27 01:17:17;;;;;;;;;;;;;;;5.49;67.91;99101.53;5024771;28;19971;-77
2023/04/27 01:19:43;;;;;;;;;;;;;;;5.55;68.06;99100.72;5024902;28;20248;-77
2023/04/27 01:22:09;;;;;;;;;;;;;;;5.55;67.94;99098.88;5021790;28;20285;-77
2023/04/27 01:24:34;;;;;;;;;;;;;;;5.61;67.73;99098.06;5004103;28;19945;-78
2023/04/27 01:27:00;;;;;;;;;;;;;;;5.57;68.16;99096.81;5018460;28;19917;-77
2023/04/27 01:29:25;;;;;;;;;;;;;;;5.60;67.40;99096.41;5025306;28;20015;-77
2023/04/27 01:31:50;;;;;;;;;;;;;;;5.60;67.36;99095.59;5027887;28;20457;-78
2023/04/27 01:34:16;;;;;;;;;;;;;;;5.58;68.02;99103.75;5002303;28;19925;-78
2023/04/27 01:36:41;;;;;;;;;;;;;;;5.60;67.62;99092.94;5025083;28;19921;-77
2023/04/27 01:39:08;;;;;;;;;;;;;;;5.52;67.78;99107.25;5022777;28;19921;-77
2023/04/27 01:41:33;;;;;;;;;;;;;;;5.62;68.12;99107.59;5028729;28;20388;-78
2023/04/27 01:43:59;;;;;;;;;;;;;;;5.61;68.45;99115.78;5023518;28;19932;-77
2023/04/27 01:46:24;;;;;;;;;;;;;;;5.61;68.30;99119.22;5005664;28;19921;-77
2023/04/27 01:48:49;;;;;;;;;;;;;;;5.57;68.55;99117.22;5032558;28;19921;-77
2023/04/27 01:51:15;;;;;;;;;;;;;;;5.53;68.13;99113.34;5009487;28;20397;-78
2023/04/27 01:53:40;;;;;;;;;;;;;;;5.50;68.48;99122.53;5003421;28;19940;-77
2023/04/27 01:56:05;;;;;;;;;;;;;;;5.49;68.13;99120.91;5023951;28;19928;-77
2023/04/27 01:58:31;;;;;;;;;;;;;;;5.62;68.25;99127.97;5022589;28;20352;-78
2023/04/27 02:00:56;;;;;;;;;;;;;;;5.61;67.93;99119.22;5004915;28;19921;-78
2023/04/27 02:03:21;;;;;;;;;;;;;;;5.52;68.09;99123.13;5003912;28;19984;-77
2023/04/27 02:05:47;;;;;;;;;;;;;;;5.59;67.86;99134.50;5005419;28;19921;-77
2023/04/27 02:08:12;;;;;;;;;;;;;;;5.56;68.13;99129.63;5022045;28;19936;-77
2023/04/27 02:10:37;;;;;;;;;;;;;;;5.56;68.44;99140.22;5002144;28;20028;-77
2023/04/27 02:13:02;;;;;;;;;;;;;;;5.53;67.54;99139.81;5026331;28;19925;-77
2023/04/27 02:15:28;;;;;;;;;;;;;;;5.49;67.92;99141.25;5020350;28;19917;-78
2023/04/27 02:17:53;;;;;;;;;;;;;;;5.52;67.88;99133.72;5023146;28;19922;-77
2023/04/27 02:20:18;;;;;;;;;;;;;;;5.47;68.11;99136.19;5007488;28;19921;-77
2023/04/27 02:22:43;;;;;;;;;;;;;;;5.47;68.53;99140.66;5024850;28;20001;-77
2023/04/27 02:25:10;;;;;;;;;;;;;;;5.42;68.29;99143.91;5018365;28;19987;-78
2023/04/27 02:27:39;;;;;;;;;;;;;;;5.44;68.25;99144.53;5020415;28;19981;-77
2023/04/27 02:30:05;;;;;;;;;;;;;;;5.36;68.07;99147.41;5026385;28;19921;-77
2023/04/27 02:32:30;;;;;;;;;;;;;;;5.35;68.07;99152.91;5026442;28;19917;-77
2023/04/27 02:34:56;;;;;;;;;;;;;;;5.27;68.01;99146.81;5010412;28;19940;-77
2023/04/27 02:37:21;;;;;;;;;;;;;;;5.34;68.56;99149.44;4998812;28;20018;-77
2023/04/27 02:39:46;;;;;;;;;;;;;;;5.35;68.43;99152.91;5014439;28;20036;-77
2023/04/27 02:42:11;;;;;;;;;;;;;;;5.32;68.24;99154.13;5023718;28;19925;-77
2023/04/27 02:44:37;;;;;;;;;;;;;;;5.33;68.02;99161.03;5021653;28;19928;-77
2023/04/27 02:47:02;;;;;;;;;;;;;;;5.39;68.33;99165.53;5012662;28;19983;-77
2023/04/27 02:49:27;;;;;;;;;;;;;;;5.40;67.91;99163.66;5005005;28;20024;-77
2023/04/27 02:51:52;;;;;;;;;;;;;;;5.43;67.83;99169.38;5022728;28;20039;-78
2023/04/27 02:54:18;;;;;;;;;;;;;;;5.43;67.83;99161.44;5006060;28;19928;-77
2023/04/27 02:56:43;;;;;;;;;;;;;;;5.40;68.73;99156.53;4998826;28;19925;-77
2023/04/27 02:59:08;;;;;;;;;;;;;;;5.37;68.68;99151.69;5019645;28;21828;-77
2023/04/27 03:01:33;;;;;;;;;;;;;;;5.37;68.48;99167.56;5021848;28;20019;-78
2023/04/27 03:03:58;;;;;;;;;;;;;;;5.32;68.45;99172.66;5025905;28;20040;-77
2023/04/27 03:06:24;;;;;;;;;;;;;;;5.36;68.40;99170.41;5025889;28;19978;-77
2023/04/27 03:08:49;;;;;;;;;;;;;;;5.29;68.57;99171.22;5023402;28;19925;-77
2023/04/27 03:11:14;;;;;;;;;;;;;;;5.26;68.76;99170.84;5019780;28;19947;-77
2023/04/27 03:13:43;;;;;;;;;;;;;;;5.30;68.47;99172.88;5010873;28;19921;-77
2023/04/27 03:16:09;;;;;;;;;;;;;;;5.22;68.83;99182.88;5003638;28;19921;-77
2023/04/27 03:18:35;;;;;;;;;;;;;;;5.19;68.72;99172.69;5035278;28;19960;-78
2023/04/27 03:21:07;;;;;;;;;;;;;;;5.21;69.49;99176.75;5018315;28;19945;-77
2023/04/27 03:23:33;;;;;;;;;;;;;;;5.17;68.54;99174.72;5023523;28;19917;-78
2023/04/27 03:25:58;;;;;;;;;;;;;;;5.17;68.63;99169.44;5024895;28;19921;-77
2023/04/27 03:28:23;;;;;;;;;;;;;;;5.12;69.12;99166.56;5019295;28;19932;-78
2023/04/27 03:30:49;;;;;;;;;;;;;;;5.12;68.50;99164.75;5022025;28;20369;-78
2023/04/27 03:33:14;;;;;;;;;;;;;;;5.12;68.56;99166.56;5026230;28;20356;-78
2023/04/27 03:35:40;;;;;;;;;;;;;;;5.06;68.80;99172.69;5019323;28;19921;-77
2023/04/27 03:38:05;;;;;;;;;;;;;;;5.06;69.10;99178.81;5022953;28;19921;-77
2023/04/27 03:40:30;;;;;;;;;;;;;;;5.04;68.90;99167.63;5040939;28;19921;-77
2023/04/27 03:42:55;;;;;;;;;;;;;;;5.07;69.05;99169.84;5024517;28;20385;-78
2023/04/27 03:45:21;;;;;;;;;;;;;;;5.14;68.61;99181.22;5018076;28;20324;-77
2023/04/27 03:47:46;;;;;;;;;;;;;;;5.09;68.39;99174.91;5020372;28;20665;-77
2023/04/27 03:50:11;;;;;;;;;;;;;;;5.13;68.60;99169.00;5012938;28;19928;-78
2023/04/27 03:52:37;;;;;;;;;;;;;;;5.01;68.83;99173.31;5023114;28;19963;-78
2023/04/27 03:55:02;;;;;;;;;;;;;;;4.85;69.56;99172.91;5019818;28;20289;-77
2023/04/27 03:57:28;;;;;;;;;;;;;;;5.07;68.95;99172.47;5018742;28;19925;-78
2023/04/27 03:59:53;;;;;;;;;;;;;;;5.08;69.28;99173.31;5003894;28;19936;-78
2023/04/27 04:02:18;;;;;;;;;;;;;;;5.10;69.07;99165.97;5019229;28;20410;-77
2023/04/27 04:04:44;;;;;;;;;;;;;;;5.07;68.74;99175.13;5016183;28;19925;-77
2023/04/27 04:07:09;;;;;;;;;;;;;;;4.96;69.12;99172.28;5017067;28;19967;-77
2023/04/27 04:09:35;;;;;;;;;;;;;;;4.93;69.02;99178.00;5007962;28;20040;-77
2023/04/27 04:12:00;;;;;;;;;;;;;;;4.92;69.75;99168.41;5024906;28;19921;-77
2023/04/27 04:14:26;;;;;;;;;;;;;;;5.00;69.27;99168.22;5021263;28;20288;-77
2023/04/27 04:16:51;;;;;;;;;;;;;;;5.03;69.21;99173.91;5015107;28;19925;-77
2023/04/27 04:19:16;;;;;;;;;;;;;;;4.94;69.25;99166.38;5019604;28;19929;-77
2023/04/27 04:21:42;;;;;;;;;;;;;;;4.93;69.89;99172.72;5019678;28;19971;-77
2023/04/27 04:24:09;;;;;;;;;;;;;;;4.84;69.50;99171.28;5003852;28;19925;-77
2023/04/27 04:26:34;;;;;;;;;;;;;;;4.84;69.10;99173.91;5018779;28;19917;-77
2023/04/27 04:28:59;;;;;;;;;;;;;;;4.82;69.46;99166.19;5009659;28;20297;-77
2023/04/27 04:31:25;;;;;;;;;;;;;;;4.86;69.12;99178.00;5021584;28;19925;-76
2023/04/27 04:33:50;;;;;;;;;;;;;;;4.88;69.05;99173.31;5017843;28;19966;-77
2023/04/27 04:36:16;;;;;;;;;;;;;;;4.90;69.00;99181.03;4997510;28;19983;-77
2023/04/27 04:38:41;;;;;;;;;;;;;;;4.83;68.90;99190.78;5017856;28;19964;-77
2023/04/27 04:41:06;;;;;;;;;;;;;;;4.72;69.16;99181.63;4996571;28;19968;-77
2023/04/27 04:43:32;;;;;;;;;;;;;;;4.72;69.61;99188.78;5010146;28;20019;-77
2023/04/27 04:45:57;;;;;;;;;;;;;;;4.70;69.71;99185.50;5011402;28;20412;-77
2023/04/27 04:48:23;;;;;;;;;;;;;;;4.49;69.87;99189.97;4999615;28;19971;-77
2023/04/27 04:50:48;;;;;;;;;;;;;;;4.15;70.75;99192.72;5017154;28;19979;-77
2023/04/27 04:53:13;;;;;;;;;;;;;;;4.14;70.90;99187.66;5022410;28;19927;-77
2023/04/27 04:55:38;;;;;;;;;;;;;;;4.10;71.43;99191.69;5027020;28;20008;-77
2023/04/27 04:58:04;;;;;;;;;;;;;;;4.00;71.77;99197.34;5012769;28;20028;-78
2023/04/27 05:00:29;;;;;;;;;;;;;;;3.99;72.05;99202.84;5006825;28;19925;-78
2023/04/27 05:02:54;;;;;;;;;;;;;;;4.20;71.47;99205.34;5017251;28;19955;-79
2023/04/27 05:05:20;;;;;;;;;;;;;;;4.27;71.50;99206.16;5017876;28;19937;-79
2023/04/27 05:07:45;;;;;;;;;;;;;;;4.35;71.60;99198.06;5018507;28;19931;-78
2023/04/27 05:10:11;;;;;;;;;;;;;;;4.39;71.10;99196.66;5022824;28;19929;-79
2023/04/27 05:12:36;;;;;;;;;;;;;;;4.39;71.14;99201.94;5012601;28;19929;-79
2023/04/27 05:15:02;;;;;;;;;;;;;;;4.56;70.77;99198.69;5023354;28;20052;-79
2023/04/27 05:17:27;;;;;;;;;;;;;;;4.63;70.52;99208.50;5025564;28;20003;-79
2023/04/27 05:19:52;;;;;;;;;;;;;;;4.65;70.58;99212.56;5024831;28;20019;-78
2023/04/27 05:22:18;;;;;;;;;;;;;;;4.65;70.57;99215.22;5030891;28;20634;-79
2023/04/27 05:24:43;;;;;;;;;;;;;;;4.57;71.13;99224.13;5023520;28;19922;-79
2023/04/27 05:27:08;;;;;;;;;;;;;;;4.79;70.64;99229.25;5007570;28;20837;-79
2023/04/27 05:29:33;;;;;;;;;;;;;;;4.84;70.35;99230.28;5022030;28;19926;-79
2023/04/27 05:31:59;;;;;;;;;;;;;;;4.96;70.69;99239.22;5023663;28;19929;-79
2023/04/27 05:34:24;;;;;;;;;;;;;;;4.92;69.85;99238.00;5009202;28;19921;-79
2023/04/27 05:36:50;;;;;;;;;;;;;;;4.98;70.31;99253.06;5022688;28;19928;-78
2023/04/27 05:39:15;;;;;;;;;;;;;;;4.94;70.30;99259.78;5023211;28;19928;-77
2023/04/27 05:41:41;;;;;;;;;;;;;;;4.65;71.38;99267.25;5031383;28;19921;-79
2023/04/27 05:44:06;;;;;;;;;;;;;;;3.87;74.68;99257.22;5035158;28;19929;-78
2023/04/27 05:46:31;;;;;;;;;;;;;;;3.59;75.81;99260.72;5028440;28;19921;-78
2023/04/27 05:48:57;;;;;;;;;;;;;;;3.71;76.41;99253.88;5032367;28;19978;-79
2023/04/27 05:51:22;;;;;;;;;;;;;;;4.38;73.45;99258.44;5010576;28;19940;-78
2023/04/27 05:53:47;;;;;;;;;;;;;;;3.80;73.39;99246.59;5027658;28;19944;-79
2023/04/27 05:56:13;;;;;;;;;;;;;;;3.80;74.17;99257.16;5033986;28;20019;-79
2023/04/27 05:58:38;;;;;;;;;;;;;;;3.41;75.07;99255.09;5026352;28;19994;-78
2023/04/27 06:01:03;;;;;;;;;;;;;;;3.41;75.63;99249.81;5024894;28;19917;-79
2023/04/27 06:03:29;;;;;;;;;;;;;;;3.89;74.83;99248.06;5017271;28;20019;-79
2023/04/27 06:05:58;;;;;;;;;;;;;;;4.27;74.31;99251.09;5037289;28;20368;-79
2023/04/27 06:08:23;;;;;;;;;;;;;;;4.31;74.08;99254.94;5023255;28;20515;-79
2023/04/27 06:10:49;;;;;;;;;;;;;;;4.68;72.26;99261.56;5023736;28;19926;-79
2023/04/27 06:13:15;;;;;;;;;;;;;;;4.53;72.62;99257.28;5028171;28;19921;-79
2023/04/27 06:15:40;;;;;;;;;;;;;;;5.11;70.52;99262.84;5011850;28;19929;-79
2023/04/27 06:18:05;;;;;;;;;;;;;;;4.38;72.45;99261.09;5015706;28;19920;-79
2023/04/27 06:20:30;;;;;;;;;;;;;;;4.30;74.18;99262.06;5023303;28;20436;-79
2023/04/27 06:22:56;;;;;;;;;;;;;;;4.14;74.75;99261.59;5027116;28;19921;-79
2023/04/27 06:25:22;;;;;;;;;;;;;;;4.12;73.51;99266.28;5025593;28;19929;-79
2023/04/27 06:27:47;;;;;;;;;;;;;;;4.03;74.21;99268.25;5026581;28;19924;-79
2023/04/27 06:30:12;;;;;;;;;;;;;;;4.45;74.06;99283.06;5016714;28;19983;-79
2023/04/27 06:32:37;;;;;;;;;;;;;;;4.49;72.74;99282.47;5028106;28;20438;-79
2023/04/27 06:35:03;;;;;;;;;;;;;;;3.85;74.45;99270.59;5022498;28;20001;-79
2023/04/27 06:37:28;;;;;;;;;;;;;;;4.12;75.14;99272.38;5019233;28;19994;-79
2023/04/27 06:39:54;;;;;;;;;;;;;;;4.29;75.11;99273.66;5020884;28;19944;-79
2023/04/27 06:42:19;;;;;;;;;;;;;;;5.07;72.33;99282.78;5023081;28;19929;-79
2023/04/27 06:44:44;;;;;;;;;;;;;;;4.79;73.16;99284.75;5021926;28;19968;-79
2023/04/27 06:47:10;;;;;;;;;;;;;;;4.39;75.69;99284.66;5021911;28;19968;-79
2023/04/27 06:49:35;;;;;;;;;;;;;;;4.04;75.74;99284.94;5022686;28;19979;-79
2023/04/27 06:52:01;;;;;;;;;;;;;;;4.31;75.95;99282.19;5019824;28;19925;-79
2023/04/27 06:54:26;;;;;;;;;;;;;;;4.57;74.47;99279.63;5028473;28;19935;-79
2023/04/27 06:56:53;;;;;;;;;;;;;;;4.27;75.36;99278.31;5019334;28;19922;-79
2023/04/27 06:59:18;;;;;;;;;;;;;;;4.10;75.36;99276.22;5013276;28;20035;-79
2023/04/27 07:01:44;;;;;;;;;;;;;;;4.22;75.47;99277.28;5000329;28;19921;-78
2023/04/27 07:04:09;;;;;;;;;;;;;;;4.50;74.80;99276.16;5001610;28;19929;-79
2023/04/27 07:06:35;;;;;;;;;;;;;;;4.18;75.12;99278.69;5021214;28;20028;-79
2023/04/27 07:09:00;;;;;;;;;;;;;;;4.34;75.63;99281.81;5019420;28;19922;-79
2023/04/27 07:11:25;;;;;;;;;;;;;;;4.89;74.18;99283.34;5021029;28;19952;-79
2023/04/27 07:13:50;;;;;;;;;;;;;;;4.83;74.84;99278.88;5013875;28;20408;-79
2023/04/27 07:16:16;;;;;;;;;;;;;;;4.94;74.70;99273.00;5012504;28;19925;-79
2023/04/27 07:18:41;;;;;;;;;;;;;;;4.65;73.64;99283.94;5017176;28;19917;-79
2023/04/27 07:21:06;;;;;;;;;;;;;;;4.47;73.44;99288.97;5014141;28;19921;-79
2023/04/27 07:23:32;;;;;;;;;;;;;;;4.43;72.63;99291.16;5018124;28;19917;-79
2023/04/27 07:25:57;;;;;;;;;;;;;;;4.48;72.42;99299.31;5003054;28;20670;-79
2023/04/27 07:28:23;;;;;;;;;;;;;;;4.76;71.51;99290.47;5017549;28;19925;-79
2023/04/27 07:30:48;;;;;;;;;;;;;;;5.05;71.33;99280.34;5013902;28;19933;-79
2023/04/27 07:33:13;;;;;;;;;;;;;;;5.05;71.14;99282.97;5019311;28;19925;-79
2023/04/27 07:35:38;;;;;;;;;;;;;;;5.19;71.01;99283.81;5000795;28;19936;-79
2023/04/27 07:38:04;;;;;;;;;;;;;;;4.78;68.36;99291.09;5020422;28;19921;-79
2023/04/27 07:40:31;;;;;;;;;;;;;;;4.82;68.01;99290.50;5018114;28;20405;-79
2023/04/27 07:42:57;;;;;;;;;;;;;;;5.17;69.14;99289.31;4997343;28;20378;-79
2023/04/27 07:45:27;;;;;;;;;;;;;;;4.65;67.29;99289.22;5018495;28;19936;-79
2023/04/27 07:47:52;;;;;;;;;;;;;;;4.54;68.98;99292.44;5017430;28;19921;-78
2023/04/27 07:50:23;;;;;;;;;;;;;;;5.72;70.55;99280.09;5035409;28;20407;-79
2023/04/27 07:52:48;;;;;;;;;;;;;;;5.99;67.06;99294.13;5024630;28;19975;-79
2023/04/27 07:55:13;;;;;;;;;;;;;;;4.96;67.05;99297.41;5022193;28;19921;-79
2023/04/27 07:57:38;;;;;;;;;;;;;;;5.47;69.60;99297.66;5022273;28;19991;-79
2023/04/27 08:00:08;;;;;;;;;;;;;;;6.30;68.54;99296.88;5026367;28;20277;-79
2023/04/27 08:02:33;;;;;;;;;;;;;;;5.48;65.83;99288.69;5010303;28;19921;-79
2023/04/27 08:04:58;;;;;;;;;;;;;;;5.82;68.30;99295.56;5024317;28;20012;-79
2023/04/27 08:07:24;;;;;;;;;;;;;;;5.78;66.42;99297.00;5023947;28;20002;-79
2023/04/27 08:09:52;;;;;;;;;;;;;;;5.61;67.18;99299.28;5025575;28;19932;-79
2023/04/27 08:12:18;;;;;;;;;;;;;;;5.44;66.53;99300.69;5007575;28;19968;-79
2023/04/27 08:14:43;;;;;;;;;;;;;;;5.42;66.59;99294.00;5021541;28;19929;-79
2023/04/27 08:17:08;;;;;;;;;;;;;;;5.59;67.57;99281.97;5004867;28;19975;-79
2023/04/27 08:19:34;;;;;;;;;;;;;;;5.69;65.91;99280.53;5019863;28;20071;-78
2023/04/27 08:21:59;;;;;;;;;;;;;;;5.69;66.53;99285.00;5027833;28;19925;-79
2023/04/27 08:24:25;;;;;;;;;;;;;;;5.85;67.05;99284.59;5020344;28;19921;-79
2023/04/27 08:26:50;;;;;;;;;;;;;;;6.03;67.20;99288.22;5031706;28;19960;-79
2023/04/27 08:29:15;;;;;;;;;;;;;;;6.17;65.90;99285.50;5025580;28;19921;-79
2023/04/27 08:31:40;;;;;;;;;;;;;;;6.72;66.78;99274.25;5027560;28;19924;-79
2023/04/27 08:34:06;;;;;;;;;;;;;;;6.32;64.77;99278.13;5019382;28;19925;-79
2023/04/27 08:36:31;;;;;;;;;;;;;;;6.72;66.19;99277.72;5023670;28;20328;-79
2023/04/27 08:38:56;;;;;;;;;;;;;;;6.66;64.05;99280.41;5030982;28;19931;-79
2023/04/27 08:41:22;;;;;;;;;;;;;;;6.68;64.90;99265.09;5048415;28;20000;-79
2023/04/27 08:43:52;;;;;;;;;;;;;;;6.61;64.82;99273.09;5030899;28;19963;-79
2023/04/27 08:46:19;;;;;;;;;;;;;;;6.70;64.12;99266.50;5027183;28;19922;-79
2023/04/27 08:48:44;;;;;;;;;;;;;;;6.92;63.16;99256.38;5033276;28;20373;-79
2023/04/27 08:51:12;;;;;;;;;;;;;;;6.36;62.29;99269.53;5014052;28;19940;-79
2023/04/27 08:53:45;;;;;;;;;;;;;;;6.68;64.17;99267.75;5026189;28;19929;-78
2023/04/27 08:56:10;;;;;;;;;;;;;;;7.85;63.66;99265.97;5030514;28;19921;-79
2023/04/27 08:58:36;;;;;;;;;;;;;;;7.22;61.23;99267.16;5035046;28;19971;-79
2023/04/27 09:01:04;;;;;;;;;;;;;;;7.64;64.28;99261.09;5015759;28;19925;-79
2023/04/27 09:03:29;;;;;;;;;;;;;;;8.03;63.47;99252.69;5007841;28;19926;-79
2023/04/27 09:05:55;;;;;;;;;;;;;;;7.90;62.33;99252.84;5022711;28;19921;-79
2023/04/27 09:08:20;;;;;;;;;;;;;;;7.66;60.57;99256.34;5021941;28;19928;-79
2023/04/27 09:10:46;;;;;;;;;;;;;;;8.60;62.01;99263.88;5028159;28;20056;-79
2023/04/27 09:13:11;;;;;;;;;;;;;;;8.48;60.42;99257.69;5037685;28;20446;-79
2023/04/27 09:15:41;;;;;;;;;;;;;;;8.34;58.80;99265.03;5024318;28;19921;-79
2023/04/27 09:18:11;;;;;;;;;;;;;;;8.64;60.70;99262.38;5030850;28;19920;-79
2023/04/27 09:20:41;;;;;;;;;;;;;;;8.66;58.86;99266.44;5034399;28;20326;-79
2023/04/27 09:23:06;;;;;;;;;;;;;;;9.15;60.30;99259.19;5027618;28;19931;-79
2023/04/27 09:25:32;;;;;;;;;;;;;;;9.23;59.57;99272.97;5030388;28;19921;-79
2023/04/27 09:27:58;;;;;;;;;;;;;;;9.23;59.05;99270.31;5030064;28;19979;-79
2023/04/27 09:30:25;;;;;;;;;;;;;;;9.19;58.97;99263.00;5020926;28;19929;-80
2023/04/27 09:32:55;;;;;;;;;;;;;;;9.10;58.72;99264.38;5029988;28;19964;-79
2023/04/27 09:35:24;;;;;;;;;;;;;;;8.94;57.27;99257.84;5008132;28;19979;-79
2023/04/27 09:37:53;;;;;;;;;;;;;;;9.11;58.66;99258.81;5026473;28;19936;-79
2023/04/27 09:40:19;;;;;;;;;;;;;;;8.94;59.04;99261.31;5031135;28;20614;-79
2023/04/27 09:42:45;;;;;;;;;;;;;;;8.70;56.50;99256.16;5029686;28;20491;-79
2023/04/27 09:45:10;;;;;;;;;;;;;;;9.01;58.02;99251.41;5023255;28;19917;-79
2023/04/27 09:47:36;;;;;;;;;;;;;;;8.84;57.57;99253.09;5025965;28;19983;-79
2023/04/27 09:50:01;;;;;;;;;;;;;;;9.19;57.74;99253.16;5027515;28;19932;-79
2023/04/27 09:52:27;;;;;;;;;;;;;;;9.18;56.59;99251.53;5026492;28;19943;-79
2023/04/27 09:54:55;;;;;;;;;;;;;;;9.42;57.25;99249.69;5029870;28;19921;-80
2023/04/27 09:57:39;;;;;;;;;;;;;;;9.34;55.51;99240.22;5029666;28;19938;-79
2023/04/27 10:00:12;;;;;;;;;;;;;;;9.82;56.16;99247.97;5020022;28;19945;-79
2023/04/27 10:02:56;;;;;;;;;;;;;;;9.29;52.07;99250.75;5023249;28;20365;-79
2023/04/27 10:05:39;;;;;;;;;;;;;;;9.74;55.53;99241.13;5023826;28;19967;-79
2023/04/27 10:08:05;;;;;;;;;;;;;;;9.77;54.76;99235.34;5024844;28;19917;-79
2023/04/27 10:10:40;;;;;;;;;;;;;;;9.91;56.26;99241.22;5029492;28;19960;-79
2023/04/27 10:13:06;;;;;;;;;;;;;;;9.38;52.07;99229.91;5026721;28;19917;-79
2023/04/27 10:15:31;;;;;;;;;;;;;;;9.27;52.67;99241.34;5023433;28;19921;-79
2023/04/27 10:18:02;;;;;;;;;;;;;;;9.59;54.91;99229.31;5008812;28;19921;-79
2023/04/27 10:20:28;;;;;;;;;;;;;;;10.01;54.08;99229.94;5022047;28;19979;-79
2023/04/27 10:22:53;;;;;;;;;;;;;;;9.87;54.55;99225.94;5021428;28;20004;-79
2023/04/27 10:25:24;;;;;;;;;;;;;;;10.29;54.70;99233.50;5023536;28;20047;-79
2023/04/27 10:27:54;;;;;;;;;;;;;;;10.45;54.42;99231.94;5035685;28;19924;-79
2023/04/27 10:30:20;;;;;;;;;;;;;;;10.46;53.68;99229.03;5029667;28;19968;-79
2023/04/27 10:32:50;;;;;;;;;;;;;;;10.61;52.75;99225.03;5028755;28;20031;-79
2023/04/27 10:35:16;;;;;;;;;;;;;;;10.81;52.41;99226.19;5026580;28;19924;-79
2023/04/27 10:37:41;;;;;;;;;;;;;;;10.88;51.45;99224.19;5029453;28;20015;-80
2023/04/27 10:40:17;;;;;;;;;;;;;;;11.05;51.21;99222.34;5026004;28;19933;-80
2023/04/27 10:42:48;;;;;;;;;;;;;;;11.07;51.06;99222.13;5027604;28;20015;-79
2023/04/27 10:45:13;;;;;;;;;;;;;;;11.00;49.81;99216.13;5022566;28;19971;-79
2023/04/27 10:47:41;;;;;;;;;;;;;;;11.37;50.86;99216.44;5027664;28;19925;-79
2023/04/27 10:50:10;;;;;;;;;;;;;;;11.23;51.95;99223.97;5026853;28;19982;-80
2023/04/27 10:52:35;;;;;;;;;;;;;;;11.41;50.53;99214.91;5030441;28;19951;-80
2023/04/27 10:55:11;;;;;;;;;;;;;;;11.39;51.45;99219.69;5022004;28;19960;-79
2023/04/27 10:57:44;;;;;;;;;;;;;;;11.08;49.42;99210.38;5019064;28;19921;-79
2023/04/27 11:00:13;;;;;;;;;;;;;;;11.41;51.00;99197.00;5023207;28;19921;-80
2023/04/27 11:02:38;;;;;;;;;;;;;;;11.32;51.24;99204.63;5022440;28;20015;-79
2023/04/27 11:05:14;;;;;;;;;;;;;;;11.16;51.97;99197.41;5034216;28;20007;-79
2023/04/27 11:07:39;;;;;;;;;;;;;;;11.40;50.11;99194.59;5022121;28;19969;-79
2023/04/27 11:10:06;;;;;;;;;;;;;;;11.33;50.21;99195.53;5009381;28;19929;-79
2023/04/27 11:12:31;;;;;;;;;;;;;;;11.04;50.79;99193.22;5024816;28;19927;-80
2023/04/27 11:14:57;;;;;;;;;;;;;;;10.91;49.79;99198.88;5005384;28;20019;-79
2023/04/27 11:17:32;;;;;;;;;;;;;;;11.03;49.76;99205.75;5024675;28;19917;-79
2023/04/27 11:19:57;;;;;;;;;;;;;;;11.10;50.05;99205.59;5015177;28;19972;-79
2023/04/27 11:22:22;;;;;;;;;;;;;;;11.23;50.45;99202.59;5023394;28;20259;-79
2023/04/27 11:24:49;;;;;;;;;;;;;;;11.52;49.14;99198.78;5008755;28;21538;-79
2023/04/27 11:27:14;;;;;;;;;;;;;;;11.70;48.80;99195.03;5013609;28;19929;-79
2023/04/27 11:29:40;;;;;;;;;;;;;;;11.96;47.98;99192.47;5032273;28;19921;-80
2023/04/27 11:32:06;;;;;;;;;;;;;;;12.38;47.73;99192.69;5010858;28;19921;-80
2023/04/27 11:34:35;;;;;;;;;;;;;;;12.75;47.39;99187.44;5027495;28;19924;-80
2023/04/27 11:37:05;;;;;;;;;;;;;;;12.91;47.83;99196.41;5019539;28;19944;-80
2023/04/27 11:39:35;;;;;;;;;;;;;;;13.28;44.88;99183.88;5023640;28;19924;-79
2023/04/27 11:42:17;;;;;;;;;;;;;;;12.34;42.76;99188.88;5029922;28;20292;-80
2023/04/27 11:44:48;;;;;;;;;;;;;;;13.35;47.41;99195.16;5027681;28;20459;-79
2023/04/27 11:47:18;;;;;;;;;;;;;;;13.23;45.69;99189.19;5027639;28;19918;-80
2023/04/27 11:50:03;;;;;;;;;;;;;;;13.88;45.81;99170.00;5029210;28;19928;-80
2023/04/27 11:52:36;;;;;;;;;;;;;;;14.24;44.10;99163.72;5026853;28;19924;-80
2023/04/27 11:55:02;;;;;;;;;;;;;;;13.37;43.27;99166.22;5021185;28;20613;-79
2023/04/27 11:57:32;;;;;;;;;;;;;;;14.14;42.41;99164.47;5017948;28;20020;-79
2023/04/27 11:59:59;;;;;;;;;;;;;;;13.94;41.35;99160.88;5014218;28;20328;-80
2023/04/27 12:02:24;;;;;;;;;;;;;;;13.99;41.94;99163.59;5016999;28;20049;-79
2023/04/27 12:04:50;;;;;;;;;;;;;;;13.75;42.23;99165.09;5015852;28;19929;-79
2023/04/27 12:07:19;;;;;;;;;;;;;;;13.18;42.88;99160.47;5002099;28;19929;-79
2023/04/27 12:09:45;;;;;;;;;;;;;;;13.13;43.45;99157.75;5026944;28;20028;-79
2023/04/27 12:12:17;;;;;;;;;;;;;;;12.20;42.78;99158.22;5024070;28;20491;-79
2023/04/27 12:14:42;;;;;;;;;;;;;;;12.82;42.94;99163.09;5020317;28;20377;-79
2023/04/27 12:17:07;;;;;;;;;;;;;;;13.35;43.09;99154.94;5011316;28;19921;-80
2023/04/27 12:19:33;;;;;;;;;;;;;;;12.76;42.75;99157.69;5027484;28;19925;-79
2023/04/27 12:21:58;;;;;;;;;;;;;;;12.68;43.63;99152.81;5023233;28;19971;-79
2023/04/27 12:24:23;;;;;;;;;;;;;;;12.61;43.82;99154.06;5015816;28;19921;-80
2023/04/27 12:26:48;;;;;;;;;;;;;;;12.44;44.06;99156.06;5019439;28;20002;-80
2023/04/27 12:29:14;;;;;;;;;;;;;;;13.15;45.95;99144.91;5034138;28;19917;-80
2023/04/27 12:31:40;;;;;;;;;;;;;;;13.47;44.21;99139.47;5027842;28;19921;-79
2023/04/27 12:34:05;;;;;;;;;;;;;;;13.71;43.55;99143.38;5024641;28;20396;-79
2023/04/27 12:36:31;;;;;;;;;;;;;;;13.68;42.61;99148.44;5023686;28;20012;-79
2023/04/27 12:38:58;;;;;;;;;;;;;;;13.64;42.05;99144.66;5006056;28;20389;-79
2023/04/27 12:41:23;;;;;;;;;;;;;;;13.94;41.96;99148.28;5022326;28;19930;-79
2023/04/27 12:43:49;;;;;;;;;;;;;;;13.86;42.67;99140.75;5005999;28;19921;-79
2023/04/27 12:46:15;;;;;;;;;;;;;;;13.13;42.16;99148.91;5021149;28;19917;-81
2023/04/27 12:48:40;;;;;;;;;;;;;;;13.11;44.02;99143.00;5024611;28;20019;-81
2023/04/27 12:51:05;;;;;;;;;;;;;;;13.13;43.14;99144.34;5008692;28;19979;-81